sensor_id;sensor_type;location;lat;lon;timestamp;temperature;humidity
37281;DHT22;23169;41.804;12.596;2022-12-07T00:02:08;12.10;99.90
37281;DHT22;23169;41.804;12.596;2022-12-07T00:04:36;12.10;99.90
37281;DHT22;23169;41.804;12.596;2022-12-07T00:07:03;12.10;99.90
37281;DHT22;23169;41.804;12.596;2022-12-07T00:09:31;12.10;99.90
37281;DHT22;23169;41.804;12.596;2022-12-07T00:11:58;12.10;99.90
37281;DHT22;23169;41.804;12.596;2022-12-07T00:14:26;12.10;99.90
37281;DHT22;23169;41.804;12.596;2022-12-07T00:16:53;12.10;99.90
37281;DHT22;23169;41.804;12.596;2022-12-07T00:19:20;12.00;99.90
37281;DHT22;23169;41.804;12.596;2022-12-07T00:21:48;12.00;99.90
37281;DHT22;23169;41.804;12.596;2022-12-07T00:24:15;11.90;99.90
37281;DHT22;23169;41.804;12.596;2022-12-07T00:26:42;11.90;99.90
37281;DHT22;23169;41.804;12.596;2022-12-07T00:29:20;11.90;99.90
37281;DHT22;23169;41.804;12.596;2022-12-07T00:31:48;11.90;99.90
37281;DHT22;23169;41.804;12.596;2022-12-07T00:34:19;11.90;99.90
37281;DHT22;23169;41.804;12.596;2022-12-07T00:36:47;11.90;99.90
37281;DHT22;23169;41.804;12.596;2022-12-07T00:39:14;11.90;99.90
37281;DHT22;23169;41.804;12.596;2022-12-07T00:41:42;11.90;99.90
37281;DHT22;23169;41.804;12.596;2022-12-07T00:44:09;11.90;99.90
37281;DHT22;23169;41.804;12.596;2022-12-07T00:46:37;11.80;99.90
37281;DHT22;23169;41.804;12.596;2022-12-07T00:49:04;12.10;99.90
37281;DHT22;23169;41.804;12.596;2022-12-07T00:51:35;11.80;99.90
37281;DHT22;23169;41.804;12.596;2022-12-07T00:54:03;11.70;99.90
37281;DHT22;23169;41.804;12.596;2022-12-07T00:56:31;11.70;99.90
37281;DHT22;23169;41.804;12.596;2022-12-07T00:58:59;11.70;99.90
37281;DHT22;23169;41.804;12.596;2022-12-07T01:01:28;11.60;99.90
37281;DHT22;23169;41.804;12.596;2022-12-07T01:03:56;11.60;99.90
37281;DHT22;23169;41.804;12.596;2022-12-07T01:06:23;11.50;99.90
37281;DHT22;23169;41.804;12.596;2022-12-07T01:08:51;11.50;99.90
37281;DHT22;23169;41.804;12.596;2022-12-07T01:11:21;11.40;99.90
37281;DHT22;23169;41.804;12.596;2022-12-07T01:13:51;11.30;1.00
37281;DHT22;23169;41.804;12.596;2022-12-07T01:16:19;11.30;1.00
37281;DHT22;23169;41.804;12.596;2022-12-07T01:18:48;11.30;1.00
37281;DHT22;23169;41.804;12.596;2022-12-07T01:21:17;11.30;1.00
37281;DHT22;23169;41.804;12.596;2022-12-07T01:23:45;11.40;1.00
37281;DHT22;23169;41.804;12.596;2022-12-07T01:26:13;11.30;1.00
37281;DHT22;23169;41.804;12.596;2022-12-07T01:28:42;11.30;1.00
37281;DHT22;23169;41.804;12.596;2022-12-07T01:31:10;11.20;13.70
37281;DHT22;23169;41.804;12.596;2022-12-07T01:33:43;11.20;42.70
37281;DHT22;23169;41.804;12.596;2022-12-07T01:38:58;11.00;83.90
37281;DHT22;23169;41.804;12.596;2022-12-07T01:41:27;11.00;99.90
37281;DHT22;23169;41.804;12.596;2022-12-07T01:46:48;10.90;99.90
37281;DHT22;23169;41.804;12.596;2022-12-07T01:49:27;10.90;99.90
37281;DHT22;23169;41.804;12.596;2022-12-07T01:51:58;10.90;99.90
37281;DHT22;23169;41.804;12.596;2022-12-07T01:54:28;10.90;99.90
37281;DHT22;23169;41.804;12.596;2022-12-07T01:56:55;10.90;99.90
37281;DHT22;23169;41.804;12.596;2022-12-07T01:59:24;10.80;99.90
37281;DHT22;23169;41.804;12.596;2022-12-07T02:01:53;10.80;99.90
37281;DHT22;23169;41.804;12.596;2022-12-07T02:04:22;10.80;99.90
37281;DHT22;23169;41.804;12.596;2022-12-07T02:06:49;10.80;99.90
37281;DHT22;23169;41.804;12.596;2022-12-07T02:09:17;10.80;99.90
37281;DHT22;23169;41.804;12.596;2022-12-07T02:11:44;10.80;99.90
37281;DHT22;23169;41.804;12.596;2022-12-07T02:14:12;10.80;99.90
37281;DHT22;23169;41.804;12.596;2022-12-07T02:21:44;10.70;99.90
37281;DHT22;23169;41.804;12.596;2022-12-07T02:24:48;10.70;99.90
37281;DHT22;23169;41.804;12.596;2022-12-07T02:34:50;11.00;99.90
37281;DHT22;23169;41.804;12.596;2022-12-07T02:39:51;11.00;99.90
37281;DHT22;23169;41.804;12.596;2022-12-07T02:42:23;11.10;84.70
37281;DHT22;23169;41.804;12.596;2022-12-07T02:44:52;11.10;70.80
37281;DHT22;23169;41.804;12.596;2022-12-07T02:47:20;9.70;6.60
37281;DHT22;23169;41.804;12.596;2022-12-07T02:49:48;11.30;1.00
37281;DHT22;23169;41.804;12.596;2022-12-07T02:52:16;11.30;1.00
37281;DHT22;23169;41.804;12.596;2022-12-07T02:54:44;11.30;1.00
37281;DHT22;23169;41.804;12.596;2022-12-07T03:07:42;11.00;8.70
37281;DHT22;23169;41.804;12.596;2022-12-07T03:15:22;10.80;1.00
37281;DHT22;23169;41.804;12.596;2022-12-07T03:17:50;10.80;25.60
37281;DHT22;23169;41.804;12.596;2022-12-07T03:20:18;10.80;47.70
37281;DHT22;23169;41.804;12.596;2022-12-07T03:22:49;10.80;34.70
37281;DHT22;23169;41.804;12.596;2022-12-07T03:25:17;10.70;70.40
37281;DHT22;23169;41.804;12.596;2022-12-07T03:27:50;10.60;99.90
37281;DHT22;23169;41.804;12.596;2022-12-07T03:30:20;10.60;99.90
37281;DHT22;23169;41.804;12.596;2022-12-07T03:35:27;10.50;99.90
37281;DHT22;23169;41.804;12.596;2022-12-07T03:37:57;10.40;99.90
37281;DHT22;23169;41.804;12.596;2022-12-07T03:42:53;10.40;99.90
37281;DHT22;23169;41.804;12.596;2022-12-07T03:45:22;10.30;99.90
37281;DHT22;23169;41.804;12.596;2022-12-07T03:48:00;10.30;99.90
37281;DHT22;23169;41.804;12.596;2022-12-07T03:53:43;10.40;1.00
37281;DHT22;23169;41.804;12.596;2022-12-07T03:56:01;10.30;1.00
37281;DHT22;23169;41.804;12.596;2022-12-07T03:58:29;10.40;1.00
37281;DHT22;23169;41.804;12.596;2022-12-07T04:00:57;10.40;1.00
37281;DHT22;23169;41.804;12.596;2022-12-07T04:03:25;10.40;1.00
37281;DHT22;23169;41.804;12.596;2022-12-07T04:05:53;10.40;1.00
37281;DHT22;23169;41.804;12.596;2022-12-07T04:08:20;10.30;99.90
37281;DHT22;23169;41.804;12.596;2022-12-07T04:10:47;10.20;99.90
37281;DHT22;23169;41.804;12.596;2022-12-07T04:13:15;10.20;1.00
37281;DHT22;23169;41.804;12.596;2022-12-07T04:15:42;10.10;1.00
37281;DHT22;23169;41.804;12.596;2022-12-07T04:18:12;10.10;1.00
37281;DHT22;23169;41.804;12.596;2022-12-07T04:20:40;10.20;99.90
37281;DHT22;23169;41.804;12.596;2022-12-07T04:23:08;10.40;99.90
37281;DHT22;23169;41.804;12.596;2022-12-07T04:25:35;10.50;94.40
37281;DHT22;23169;41.804;12.596;2022-12-07T04:28:03;10.50;1.00
37281;DHT22;23169;41.804;12.596;2022-12-07T04:30:31;10.50;1.00
37281;DHT22;23169;41.804;12.596;2022-12-07T04:32:58;10.50;99.90
37281;DHT22;23169;41.804;12.596;2022-12-07T04:35:25;10.60;1.00
37281;DHT22;23169;41.804;12.596;2022-12-07T04:37:52;10.60;99.90
37281;DHT22;23169;41.804;12.596;2022-12-07T04:40:20;10.60;99.90
37281;DHT22;23169;41.804;12.596;2022-12-07T04:42:47;10.50;99.90
37281;DHT22;23169;41.804;12.596;2022-12-07T04:45:15;10.60;99.90
37281;DHT22;23169;41.804;12.596;2022-12-07T04:47:42;10.60;1.00
37281;DHT22;23169;41.804;12.596;2022-12-07T04:50:10;10.80;99.90
37281;DHT22;23169;41.804;12.596;2022-12-07T04:52:37;10.80;99.90
37281;DHT22;23169;41.804;12.596;2022-12-07T04:55:04;10.80;99.90
37281;DHT22;23169;41.804;12.596;2022-12-07T04:57:32;11.40;99.90
37281;DHT22;23169;41.804;12.596;2022-12-07T04:59:59;10.60;99.90
37281;DHT22;23169;41.804;12.596;2022-12-07T05:02:27;10.40;99.90
37281;DHT22;23169;41.804;12.596;2022-12-07T05:04:54;10.30;99.90
37281;DHT22;23169;41.804;12.596;2022-12-07T05:07:21;10.30;99.90
37281;DHT22;23169;41.804;12.596;2022-12-07T05:09:48;10.20;99.90
37281;DHT22;23169;41.804;12.596;2022-12-07T05:12:16;10.20;99.90
37281;DHT22;23169;41.804;12.596;2022-12-07T05:14:43;10.10;99.90
37281;DHT22;23169;41.804;12.596;2022-12-07T05:17:11;10.10;99.90
37281;DHT22;23169;41.804;12.596;2022-12-07T05:19:39;10.20;99.90
37281;DHT22;23169;41.804;12.596;2022-12-07T05:22:06;10.20;99.90
37281;DHT22;23169;41.804;12.596;2022-12-07T05:24:33;10.10;99.90
37281;DHT22;23169;41.804;12.596;2022-12-07T05:27:01;10.20;1.00
37281;DHT22;23169;41.804;12.596;2022-12-07T05:29:28;10.20;1.00
37281;DHT22;23169;41.804;12.596;2022-12-07T05:31:55;10.20;1.00
37281;DHT22;23169;41.804;12.596;2022-12-07T05:34:23;10.30;99.90
37281;DHT22;23169;41.804;12.596;2022-12-07T05:36:50;10.30;99.90
37281;DHT22;23169;41.804;12.596;2022-12-07T05:39:18;10.40;99.90
37281;DHT22;23169;41.804;12.596;2022-12-07T05:41:45;10.40;99.90
37281;DHT22;23169;41.804;12.596;2022-12-07T05:44:32;10.40;99.90
37281;DHT22;23169;41.804;12.596;2022-12-07T05:47:00;10.30;99.90
37281;DHT22;23169;41.804;12.596;2022-12-07T05:49:27;10.30;99.90
37281;DHT22;23169;41.804;12.596;2022-12-07T05:51:55;10.30;99.90
37281;DHT22;23169;41.804;12.596;2022-12-07T05:54:24;10.30;99.90
37281;DHT22;23169;41.804;12.596;2022-12-07T05:56:51;10.30;99.90
37281;DHT22;23169;41.804;12.596;2022-12-07T05:59:19;10.30;99.90
37281;DHT22;23169;41.804;12.596;2022-12-07T06:01:50;10.30;99.90
37281;DHT22;23169;41.804;12.596;2022-12-07T06:04:18;10.30;99.90
37281;DHT22;23169;41.804;12.596;2022-12-07T06:06:47;10.40;99.90
37281;DHT22;23169;41.804;12.596;2022-12-07T06:09:14;10.50;99.90
37281;DHT22;23169;41.804;12.596;2022-12-07T06:11:44;10.70;99.90
37281;DHT22;23169;41.804;12.596;2022-12-07T06:14:30;10.80;99.90
37281;DHT22;23169;41.804;12.596;2022-12-07T06:16:57;10.80;99.90
37281;DHT22;23169;41.804;12.596;2022-12-07T06:19:25;10.80;99.90
37281;DHT22;23169;41.804;12.596;2022-12-07T06:21:52;10.70;99.70
37281;DHT22;23169;41.804;12.596;2022-12-07T06:24:19;10.60;99.90
37281;DHT22;23169;41.804;12.596;2022-12-07T06:26:47;10.50;99.90
37281;DHT22;23169;41.804;12.596;2022-12-07T06:29:14;10.40;99.90
37281;DHT22;23169;41.804;12.596;2022-12-07T06:31:42;10.30;99.90
37281;DHT22;23169;41.804;12.596;2022-12-07T06:34:10;10.40;99.90
37281;DHT22;23169;41.804;12.596;2022-12-07T06:36:38;10.40;99.90
37281;DHT22;23169;41.804;12.596;2022-12-07T06:39:06;10.40;99.90
37281;DHT22;23169;41.804;12.596;2022-12-07T06:41:33;10.40;99.90
37281;DHT22;23169;41.804;12.596;2022-12-07T06:44:00;10.40;99.90
37281;DHT22;23169;41.804;12.596;2022-12-07T06:46:28;10.40;99.90
37281;DHT22;23169;41.804;12.596;2022-12-07T06:48:58;10.50;99.90
37281;DHT22;23169;41.804;12.596;2022-12-07T06:51:26;10.50;99.90
37281;DHT22;23169;41.804;12.596;2022-12-07T06:53:53;10.60;71.10
37281;DHT22;23169;41.804;12.596;2022-12-07T06:56:21;10.70;36.90
37281;DHT22;23169;41.804;12.596;2022-12-07T06:58:49;10.70;58.30
37281;DHT22;23169;41.804;12.596;2022-12-07T07:01:17;10.90;54.20
37281;DHT22;23169;41.804;12.596;2022-12-07T07:03:46;11.00;74.10
37281;DHT22;23169;41.804;12.596;2022-12-07T07:06:14;11.20;80.70
37281;DHT22;23169;41.804;12.596;2022-12-07T07:08:42;11.40;43.90
37281;DHT22;23169;41.804;12.596;2022-12-07T07:11:09;11.50;1.00
37281;DHT22;23169;41.804;12.596;2022-12-07T07:13:36;11.60;1.00
37281;DHT22;23169;41.804;12.596;2022-12-07T07:16:04;11.70;1.00
37281;DHT22;23169;41.804;12.596;2022-12-07T07:18:32;11.90;1.00
37281;DHT22;23169;41.804;12.596;2022-12-07T07:20:59;11.60;1.00
37281;DHT22;23169;41.804;12.596;2022-12-07T07:23:28;11.50;1.00
37281;DHT22;23169;41.804;12.596;2022-12-07T07:25:55;11.60;1.00
37281;DHT22;23169;41.804;12.596;2022-12-07T07:28:22;11.80;1.00
37281;DHT22;23169;41.804;12.596;2022-12-07T07:30:50;12.00;1.00
37281;DHT22;23169;41.804;12.596;2022-12-07T07:33:17;12.00;1.00
37281;DHT22;23169;41.804;12.596;2022-12-07T07:35:45;12.10;1.00
37281;DHT22;23169;41.804;12.596;2022-12-07T07:38:12;12.00;1.00
37281;DHT22;23169;41.804;12.596;2022-12-07T07:40:40;11.80;1.00
37281;DHT22;23169;41.804;12.596;2022-12-07T07:43:08;11.80;1.00
37281;DHT22;23169;41.804;12.596;2022-12-07T07:45:35;11.70;1.00
37281;DHT22;23169;41.804;12.596;2022-12-07T07:48:03;11.70;1.00
37281;DHT22;23169;41.804;12.596;2022-12-07T07:50:30;11.70;1.00
37281;DHT22;23169;41.804;12.596;2022-12-07T07:52:57;11.80;1.00
37281;DHT22;23169;41.804;12.596;2022-12-07T07:55:25;11.90;1.00
37281;DHT22;23169;41.804;12.596;2022-12-07T07:57:53;11.90;1.00
37281;DHT22;23169;41.804;12.596;2022-12-07T08:00:21;12.00;1.00
37281;DHT22;23169;41.804;12.596;2022-12-07T08:02:48;12.00;1.00
37281;DHT22;23169;41.804;12.596;2022-12-07T08:05:16;11.90;1.00
37281;DHT22;23169;41.804;12.596;2022-12-07T08:07:44;11.90;1.00
37281;DHT22;23169;41.804;12.596;2022-12-07T08:10:12;11.80;1.00
37281;DHT22;23169;41.804;12.596;2022-12-07T08:12:40;11.90;1.00
37281;DHT22;23169;41.804;12.596;2022-12-07T08:15:29;11.90;1.00
37281;DHT22;23169;41.804;12.596;2022-12-07T08:17:57;11.90;1.00
37281;DHT22;23169;41.804;12.596;2022-12-07T08:20:24;11.90;1.00
37281;DHT22;23169;41.804;12.596;2022-12-07T08:22:51;12.00;1.00
37281;DHT22;23169;41.804;12.596;2022-12-07T08:25:18;12.00;1.00
37281;DHT22;23169;41.804;12.596;2022-12-07T08:27:46;12.10;1.00
37281;DHT22;23169;41.804;12.596;2022-12-07T08:30:13;12.20;1.00
37281;DHT22;23169;41.804;12.596;2022-12-07T08:32:41;12.30;1.00
37281;DHT22;23169;41.804;12.596;2022-12-07T08:35:08;12.30;99.90
37281;DHT22;23169;41.804;12.596;2022-12-07T08:37:36;12.40;1.00
37281;DHT22;23169;41.804;12.596;2022-12-07T08:40:04;12.50;99.90
37281;DHT22;23169;41.804;12.596;2022-12-07T08:42:32;12.60;99.90
37281;DHT22;23169;41.804;12.596;2022-12-07T08:45:05;12.70;99.90
37281;DHT22;23169;41.804;12.596;2022-12-07T08:47:34;12.80;99.90
37281;DHT22;23169;41.804;12.596;2022-12-07T08:50:02;12.80;99.90
37281;DHT22;23169;41.804;12.596;2022-12-07T08:52:31;12.90;99.90
37281;DHT22;23169;41.804;12.596;2022-12-07T08:54:59;12.90;99.90
37281;DHT22;23169;41.804;12.596;2022-12-07T08:57:27;12.90;99.90
37281;DHT22;23169;41.804;12.596;2022-12-07T08:59:56;13.00;99.90
37281;DHT22;23169;41.804;12.596;2022-12-07T09:02:24;13.00;99.90
37281;DHT22;23169;41.804;12.596;2022-12-07T09:04:52;13.20;99.90
37281;DHT22;23169;41.804;12.596;2022-12-07T09:07:19;13.30;99.90
37281;DHT22;23169;41.804;12.596;2022-12-07T09:09:46;13.30;99.90
37281;DHT22;23169;41.804;12.596;2022-12-07T09:12:13;13.30;99.90
37281;DHT22;23169;41.804;12.596;2022-12-07T09:14:41;13.40;99.90
37281;DHT22;23169;41.804;12.596;2022-12-07T09:17:09;13.50;99.90
37281;DHT22;23169;41.804;12.596;2022-12-07T09:19:37;13.60;99.90
37281;DHT22;23169;41.804;12.596;2022-12-07T09:22:05;13.70;99.90
37281;DHT22;23169;41.804;12.596;2022-12-07T09:24:32;13.80;99.90
37281;DHT22;23169;41.804;12.596;2022-12-07T09:26:59;13.90;99.90
37281;DHT22;23169;41.804;12.596;2022-12-07T09:29:27;14.00;99.90
37281;DHT22;23169;41.804;12.596;2022-12-07T09:31:54;14.10;99.90
37281;DHT22;23169;41.804;12.596;2022-12-07T09:34:21;14.30;99.90
37281;DHT22;23169;41.804;12.596;2022-12-07T09:36:49;14.50;99.90
37281;DHT22;23169;41.804;12.596;2022-12-07T09:39:16;14.50;99.90
37281;DHT22;23169;41.804;12.596;2022-12-07T09:41:43;14.50;99.90
37281;DHT22;23169;41.804;12.596;2022-12-07T09:44:12;14.50;99.90
37281;DHT22;23169;41.804;12.596;2022-12-07T09:46:41;14.50;99.90
37281;DHT22;23169;41.804;12.596;2022-12-07T09:49:13;14.70;99.90
37281;DHT22;23169;41.804;12.596;2022-12-07T09:51:43;14.80;99.90
37281;DHT22;23169;41.804;12.596;2022-12-07T09:54:14;15.00;99.90
37281;DHT22;23169;41.804;12.596;2022-12-07T09:56:42;15.10;99.90
37281;DHT22;23169;41.804;12.596;2022-12-07T09:59:13;15.30;99.90
37281;DHT22;23169;41.804;12.596;2022-12-07T10:01:43;15.40;99.90
37281;DHT22;23169;41.804;12.596;2022-12-07T10:04:12;15.50;99.90
37281;DHT22;23169;41.804;12.596;2022-12-07T10:06:40;15.60;99.90
37281;DHT22;23169;41.804;12.596;2022-12-07T10:09:11;15.70;99.90
37281;DHT22;23169;41.804;12.596;2022-12-07T10:14:24;15.90;99.90
37281;DHT22;23169;41.804;12.596;2022-12-07T10:16:55;16.10;99.90
37281;DHT22;23169;41.804;12.596;2022-12-07T10:19:24;16.10;99.90
37281;DHT22;23169;41.804;12.596;2022-12-07T10:22:12;16.10;99.90
37281;DHT22;23169;41.804;12.596;2022-12-07T10:24:40;16.10;99.90
37281;DHT22;23169;41.804;12.596;2022-12-07T10:27:56;16.30;99.90
37281;DHT22;23169;41.804;12.596;2022-12-07T10:29:59;16.50;99.90
37281;DHT22;23169;41.804;12.596;2022-12-07T10:32:32;16.70;99.90
37281;DHT22;23169;41.804;12.596;2022-12-07T10:35:20;16.80;99.90
37281;DHT22;23169;41.804;12.596;2022-12-07T10:37:49;16.80;99.90
37281;DHT22;23169;41.804;12.596;2022-12-07T10:40:33;16.80;99.90
37281;DHT22;23169;41.804;12.596;2022-12-07T10:43:16;17.00;99.90
37281;DHT22;23169;41.804;12.596;2022-12-07T10:53:54;17.40;99.90
37281;DHT22;23169;41.804;12.596;2022-12-07T10:58:59;17.80;99.90
37281;DHT22;23169;41.804;12.596;2022-12-07T11:07:19;18.00;99.90
37281;DHT22;23169;41.804;12.596;2022-12-07T11:09:57;18.00;99.90
37281;DHT22;23169;41.804;12.596;2022-12-07T11:33:45;18.60;99.90
37281;DHT22;23169;41.804;12.596;2022-12-07T11:36:19;18.90;99.90
37281;DHT22;23169;41.804;12.596;2022-12-07T11:38:55;19.40;99.90
37281;DHT22;23169;41.804;12.596;2022-12-07T11:41:28;19.70;99.90
37281;DHT22;23169;41.804;12.596;2022-12-07T11:44:07;20.10;99.90
37281;DHT22;23169;41.804;12.596;2022-12-07T11:46:57;20.40;99.90
37281;DHT22;23169;41.804;12.596;2022-12-07T11:49:27;20.50;99.90
37281;DHT22;23169;41.804;12.596;2022-12-07T11:51:58;20.80;99.90
37281;DHT22;23169;41.804;12.596;2022-12-07T11:54:29;21.00;99.90
37281;DHT22;23169;41.804;12.596;2022-12-07T11:56:59;21.20;99.90
37281;DHT22;23169;41.804;12.596;2022-12-07T11:59:36;21.20;99.90
37281;DHT22;23169;41.804;12.596;2022-12-07T12:08:00;21.20;99.90
37281;DHT22;23169;41.804;12.596;2022-12-07T12:13:15;21.40;99.90
37281;DHT22;23169;41.804;12.596;2022-12-07T12:21:09;22.10;99.90
37281;DHT22;23169;41.804;12.596;2022-12-07T12:23:51;22.10;99.90
37281;DHT22;23169;41.804;12.596;2022-12-07T12:26:23;22.10;99.90
37281;DHT22;23169;41.804;12.596;2022-12-07T12:28:53;22.00;99.90
37281;DHT22;23169;41.804;12.596;2022-12-07T12:33:56;21.70;99.90
37281;DHT22;23169;41.804;12.596;2022-12-07T12:36:25;21.50;99.90
37281;DHT22;23169;41.804;12.596;2022-12-07T12:51:44;22.50;98.80
37281;DHT22;23169;41.804;12.596;2022-12-07T12:54:15;22.10;97.80
37281;DHT22;23169;41.804;12.596;2022-12-07T12:59:29;20.60;98.30
37281;DHT22;23169;41.804;12.596;2022-12-07T13:04:39;20.40;96.80
37281;DHT22;23169;41.804;12.596;2022-12-07T13:07:10;20.00;98.50
37281;DHT22;23169;41.804;12.596;2022-12-07T13:09:38;19.80;99.70
37281;DHT22;23169;41.804;12.596;2022-12-07T13:12:13;19.40;99.90
37281;DHT22;23169;41.804;12.596;2022-12-07T13:19:59;20.10;99.90
37281;DHT22;23169;41.804;12.596;2022-12-07T13:25:10;20.40;99.90
37281;DHT22;23169;41.804;12.596;2022-12-07T13:27:39;20.20;99.90
37281;DHT22;23169;41.804;12.596;2022-12-07T13:30:16;19.80;99.90
37281;DHT22;23169;41.804;12.596;2022-12-07T13:32:50;19.70;99.90
37281;DHT22;23169;41.804;12.596;2022-12-07T13:37:58;20.00;99.90
37281;DHT22;23169;41.804;12.596;2022-12-07T13:40:26;19.60;99.90
37281;DHT22;23169;41.804;12.596;2022-12-07T13:42:58;19.40;99.90
37281;DHT22;23169;41.804;12.596;2022-12-07T13:45:27;19.20;99.90
37281;DHT22;23169;41.804;12.596;2022-12-07T13:48:34;18.90;99.90
37281;DHT22;23169;41.804;12.596;2022-12-07T13:51:01;18.60;99.90
37281;DHT22;23169;41.804;12.596;2022-12-07T13:53:29;18.40;99.90
37281;DHT22;23169;41.804;12.596;2022-12-07T13:55:58;18.30;99.90
37281;DHT22;23169;41.804;12.596;2022-12-07T13:58:26;18.10;99.90
37281;DHT22;23169;41.804;12.596;2022-12-07T14:00:54;17.90;99.90
37281;DHT22;23169;41.804;12.596;2022-12-07T14:03:23;17.80;99.90
37281;DHT22;23169;41.804;12.596;2022-12-07T14:06:06;17.70;99.90
37281;DHT22;23169;41.804;12.596;2022-12-07T14:08:34;17.70;99.90
37281;DHT22;23169;41.804;12.596;2022-12-07T14:11:01;17.70;99.90
37281;DHT22;23169;41.804;12.596;2022-12-07T14:13:33;17.70;99.90
37281;DHT22;23169;41.804;12.596;2022-12-07T14:16:19;17.50;99.90
37281;DHT22;23169;41.804;12.596;2022-12-07T14:18:49;17.30;99.90
37281;DHT22;23169;41.804;12.596;2022-12-07T14:21:17;17.10;99.90
37281;DHT22;23169;41.804;12.596;2022-12-07T14:23:45;17.00;99.90
37281;DHT22;23169;41.804;12.596;2022-12-07T14:26:28;16.80;99.90
37281;DHT22;23169;41.804;12.596;2022-12-07T14:29:18;16.80;99.90
37281;DHT22;23169;41.804;12.596;2022-12-07T14:31:43;17.00;99.90
37281;DHT22;23169;41.804;12.596;2022-12-07T14:34:11;17.50;99.90
37281;DHT22;23169;41.804;12.596;2022-12-07T14:36:39;17.60;99.90
37281;DHT22;23169;41.804;12.596;2022-12-07T14:39:06;17.40;99.90
37281;DHT22;23169;41.804;12.596;2022-12-07T14:41:36;17.20;99.90
37281;DHT22;23169;41.804;12.596;2022-12-07T14:44:20;17.20;99.90
37281;DHT22;23169;41.804;12.596;2022-12-07T14:46:48;17.50;99.90
37281;DHT22;23169;41.804;12.596;2022-12-07T14:49:17;17.30;99.90
37281;DHT22;23169;41.804;12.596;2022-12-07T14:51:46;17.00;99.90
37281;DHT22;23169;41.804;12.596;2022-12-07T14:54:15;16.80;99.90
37281;DHT22;23169;41.804;12.596;2022-12-07T14:56:43;16.60;99.90
37281;DHT22;23169;41.804;12.596;2022-12-07T14:59:11;16.60;99.90
37281;DHT22;23169;41.804;12.596;2022-12-07T15:01:38;16.50;99.90
37281;DHT22;23169;41.804;12.596;2022-12-07T15:04:06;16.50;99.90
37281;DHT22;23169;41.804;12.596;2022-12-07T15:06:33;16.40;99.90
37281;DHT22;23169;41.804;12.596;2022-12-07T15:09:01;16.40;99.90
37281;DHT22;23169;41.804;12.596;2022-12-07T15:11:29;16.40;99.90
37281;DHT22;23169;41.804;12.596;2022-12-07T15:13:56;16.40;99.90
37281;DHT22;23169;41.804;12.596;2022-12-07T15:16:37;16.40;99.90
37281;DHT22;23169;41.804;12.596;2022-12-07T15:19:22;16.30;99.90
37281;DHT22;23169;41.804;12.596;2022-12-07T15:21:52;16.20;99.90
37281;DHT22;23169;41.804;12.596;2022-12-07T15:24:20;16.20;99.90
37281;DHT22;23169;41.804;12.596;2022-12-07T15:26:47;16.10;99.90
37281;DHT22;23169;41.804;12.596;2022-12-07T15:29:15;16.10;99.90
37281;DHT22;23169;41.804;12.596;2022-12-07T15:31:44;16.00;99.90
37281;DHT22;23169;41.804;12.596;2022-12-07T15:34:12;16.00;99.90
37281;DHT22;23169;41.804;12.596;2022-12-07T15:36:40;15.90;99.90
37281;DHT22;23169;41.804;12.596;2022-12-07T15:39:09;15.90;99.90
37281;DHT22;23169;41.804;12.596;2022-12-07T15:41:37;15.90;99.90
37281;DHT22;23169;41.804;12.596;2022-12-07T15:44:04;15.90;99.90
37281;DHT22;23169;41.804;12.596;2022-12-07T15:46:50;15.80;99.90
37281;DHT22;23169;41.804;12.596;2022-12-07T15:49:18;15.60;99.90
37281;DHT22;23169;41.804;12.596;2022-12-07T15:51:45;15.50;99.90
37281;DHT22;23169;41.804;12.596;2022-12-07T15:54:16;15.50;99.90
37281;DHT22;23169;41.804;12.596;2022-12-07T15:56:44;15.40;99.90
37281;DHT22;23169;41.804;12.596;2022-12-07T15:59:12;15.40;99.90
37281;DHT22;23169;41.804;12.596;2022-12-07T16:01:39;15.30;1.00
37281;DHT22;23169;41.804;12.596;2022-12-07T16:04:07;15.20;1.00
37281;DHT22;23169;41.804;12.596;2022-12-07T16:06:35;15.20;1.00
37281;DHT22;23169;41.804;12.596;2022-12-07T16:09:02;15.20;1.00
37281;DHT22;23169;41.804;12.596;2022-12-07T16:11:30;15.20;1.00
37281;DHT22;23169;41.804;12.596;2022-12-07T16:13:58;15.20;1.00
37281;DHT22;23169;41.804;12.596;2022-12-07T16:16:26;15.20;1.00
37281;DHT22;23169;41.804;12.596;2022-12-07T16:18:53;15.20;1.00
37281;DHT22;23169;41.804;12.596;2022-12-07T16:21:21;15.30;1.00
37281;DHT22;23169;41.804;12.596;2022-12-07T16:23:48;15.30;1.00
37281;DHT22;23169;41.804;12.596;2022-12-07T16:26:17;15.30;1.00
37281;DHT22;23169;41.804;12.596;2022-12-07T16:28:47;15.40;1.00
37281;DHT22;23169;41.804;12.596;2022-12-07T16:31:15;15.40;1.00
37281;DHT22;23169;41.804;12.596;2022-12-07T16:33:43;15.40;14.00
37281;DHT22;23169;41.804;12.596;2022-12-07T16:36:11;15.30;45.10
37281;DHT22;23169;41.804;12.596;2022-12-07T16:38:38;15.30;99.90
37281;DHT22;23169;41.804;12.596;2022-12-07T16:41:06;15.30;99.90
37281;DHT22;23169;41.804;12.596;2022-12-07T16:43:34;15.30;99.90
37281;DHT22;23169;41.804;12.596;2022-12-07T16:46:02;15.30;99.90
37281;DHT22;23169;41.804;12.596;2022-12-07T16:48:31;15.30;99.90
37281;DHT22;23169;41.804;12.596;2022-12-07T16:50:58;15.20;99.90
37281;DHT22;23169;41.804;12.596;2022-12-07T16:53:29;15.20;99.90
37281;DHT22;23169;41.804;12.596;2022-12-07T16:55:56;15.20;99.90
37281;DHT22;23169;41.804;12.596;2022-12-07T16:58:24;15.20;99.90
37281;DHT22;23169;41.804;12.596;2022-12-07T17:00:51;15.10;1.00
37281;DHT22;23169;41.804;12.596;2022-12-07T17:03:18;15.10;1.00
37281;DHT22;23169;41.804;12.596;2022-12-07T17:05:46;15.10;24.50
37281;DHT22;23169;41.804;12.596;2022-12-07T17:08:13;15.10;90.00
37281;DHT22;23169;41.804;12.596;2022-12-07T17:10:42;15.10;99.90
37281;DHT22;23169;41.804;12.596;2022-12-07T17:13:10;15.10;99.90
37281;DHT22;23169;41.804;12.596;2022-12-07T17:15:57;15.10;98.80
37281;DHT22;23169;41.804;12.596;2022-12-07T17:18:26;15.10;99.90
37281;DHT22;23169;41.804;12.596;2022-12-07T17:20:53;15.10;99.90
37281;DHT22;23169;41.804;12.596;2022-12-07T17:23:23;15.70;99.90
37281;DHT22;23169;41.804;12.596;2022-12-07T17:25:52;15.10;99.90
37281;DHT22;23169;41.804;12.596;2022-12-07T17:28:19;15.10;99.90
37281;DHT22;23169;41.804;12.596;2022-12-07T17:30:46;15.10;99.90
37281;DHT22;23169;41.804;12.596;2022-12-07T17:33:14;15.10;99.90
37281;DHT22;23169;41.804;12.596;2022-12-07T17:35:42;15.10;99.90
37281;DHT22;23169;41.804;12.596;2022-12-07T17:38:09;15.10;99.90
37281;DHT22;23169;41.804;12.596;2022-12-07T17:40:37;15.10;99.90
37281;DHT22;23169;41.804;12.596;2022-12-07T17:43:04;15.10;1.00
37281;DHT22;23169;41.804;12.596;2022-12-07T17:45:31;15.00;1.00